Friday, January 19, 2018, 1:57 AM GMT
Back to Local

CWQH, Lennoxville

Location: , , Canada Lat: 45.367
Local Time: 1:57 AM GMT ( 1:57 GMT) Lon: -71.817
Time Zone: GMT Elev: 593 ft

Show me the last for .
Show Coded

Time T Td Feel RH Dir Speed Gust Alt SLP Vis Weather Sky Remarks
2018-01-19 01:00 24 20 17 85 250° 6 - - - 0 None
2018-01-19 00:00 24 20 18 83 230° 5 - - - 0 None
2018-01-18 23:00 24 19 16 81 240° 7 - - - 0 None
2018-01-18 22:00 24 19 16 82 230° 7 - - - 0 None
2018-01-18 21:00 24 19 16 79 240° 7 - - - 0 None
2018-01-18 20:00 24 19 14 79 230° 10 - - - 0 None
2018-01-18 19:00 24 18 15 77 250° 9 - - - 0 None
2018-01-18 18:00 24 19 15 78 240° 8 - - - 0 None
2018-01-18 17:00 24 18 16 78 230° 7 - - - 0 None
2018-01-18 16:00 23 18 13 83 220° 8 - - - 0 None
2018-01-18 15:00 21 18 11 86 210° 8 - - - 0 None
2018-01-18 14:00 20 17 11 89 220° 7 - - - 0 None
2018-01-18 13:00 19 16 7 86 210° 10 - - - 0 None
2018-01-18 12:00 19 16 7 88 220° 10 - - - 0 None
2018-01-18 11:00 18 15 6 87 200° 10 - - - 0 None
2018-01-18 10:00 18 15 8 86 190° 8 - - - 0 None
2018-01-18 09:00 20 13 10 74 160° 9 - - - 0 None
2018-01-18 08:00 17 13 9 84 210° 6 - - - 0 None
2018-01-18 07:00 17 12 12 80 190° 3 - - - 0 None
2018-01-18 06:00 16 12 - 84 - Calm - - - 0 None
2018-01-18 05:00 16 13 11 85 210° 3 - - - 0 None
2018-01-18 04:00 18 15 8 86 200° 7 - - - 0 None
2018-01-18 03:00 20 16 15 84 200° 3 - - - 0 None
2018-01-18 02:00 20 15 - 81 170° 2 - - - 0 None

Support USWX by starting your Amazon purchase here.